sensor_id;sensor_type;location;lat;lon;timestamp;P1;durP1;ratioP1;P2;durP2;ratioP2
21095;SDS011;10706;49.036;12.112;2022-08-14T00:00:16;13.63;;;6.40;;
21095;SDS011;10706;49.036;12.112;2022-08-14T00:02:43;12.65;;;6.13;;
21095;SDS011;10706;49.036;12.112;2022-08-14T00:05:11;13.20;;;6.22;;
21095;SDS011;10706;49.036;12.112;2022-08-14T00:07:40;12.82;;;5.82;;
21095;SDS011;10706;49.036;12.112;2022-08-14T00:10:07;13.52;;;6.07;;
21095;SDS011;10706;49.036;12.112;2022-08-14T00:12:38;13.13;;;6.07;;
21095;SDS011;10706;49.036;12.112;2022-08-14T00:15:18;13.93;;;6.47;;
21095;SDS011;10706;49.036;12.112;2022-08-14T00:17:57;12.35;;;5.80;;
21095;SDS011;10706;49.036;12.112;2022-08-14T00:20:24;12.70;;;5.97;;
21095;SDS011;10706;49.036;12.112;2022-08-14T00:22:58;12.98;;;6.22;;
21095;SDS011;10706;49.036;12.112;2022-08-14T00:25:25;11.93;;;6.10;;
21095;SDS011;10706;49.036;12.112;2022-08-14T00:27:52;16.15;;;6.20;;
21095;SDS011;10706;49.036;12.112;2022-08-14T00:30:19;12.77;;;5.82;;
21095;SDS011;10706;49.036;12.112;2022-08-14T00:32:45;13.10;;;6.50;;
21095;SDS011;10706;49.036;12.112;2022-08-14T00:35:11;13.93;;;6.45;;
21095;SDS011;10706;49.036;12.112;2022-08-14T00:37:38;13.20;;;6.30;;
21095;SDS011;10706;49.036;12.112;2022-08-14T00:40:09;12.35;;;6.28;;
21095;SDS011;10706;49.036;12.112;2022-08-14T00:42:38;12.63;;;5.80;;
21095;SDS011;10706;49.036;12.112;2022-08-14T00:45:05;12.48;;;6.10;;
21095;SDS011;10706;49.036;12.112;2022-08-14T00:47:35;14.70;;;6.70;;
21095;SDS011;10706;49.036;12.112;2022-08-14T00:50:02;12.88;;;5.97;;
21095;SDS011;10706;49.036;12.112;2022-08-14T00:52:31;14.82;;;6.57;;
21095;SDS011;10706;49.036;12.112;2022-08-14T00:54:58;12.65;;;6.20;;
21095;SDS011;10706;49.036;12.112;2022-08-14T00:57:29;13.15;;;6.35;;
21095;SDS011;10706;49.036;12.112;2022-08-14T00:59:57;14.63;;;6.25;;
21095;SDS011;10706;49.036;12.112;2022-08-14T01:02:24;12.77;;;5.95;;
21095;SDS011;10706;49.036;12.112;2022-08-14T01:04:52;12.98;;;6.20;;
21095;SDS011;10706;49.036;12.112;2022-08-14T01:07:23;14.35;;;6.88;;
21095;SDS011;10706;49.036;12.112;2022-08-14T01:09:57;12.38;;;6.07;;
21095;SDS011;10706;49.036;12.112;2022-08-14T01:12:26;11.57;;;5.82;;
21095;SDS011;10706;49.036;12.112;2022-08-14T01:14:54;14.80;;;6.93;;
21095;SDS011;10706;49.036;12.112;2022-08-14T01:17:21;14.60;;;7.45;;
21095;SDS011;10706;49.036;12.112;2022-08-14T01:19:48;13.50;;;6.55;;
21095;SDS011;10706;49.036;12.112;2022-08-14T01:22:33;12.93;;;6.55;;
21095;SDS011;10706;49.036;12.112;2022-08-14T01:25:00;13.05;;;6.00;;
21095;SDS011;10706;49.036;12.112;2022-08-14T01:27:27;16.17;;;6.53;;
21095;SDS011;10706;49.036;12.112;2022-08-14T01:29:55;14.00;;;6.93;;
21095;SDS011;10706;49.036;12.112;2022-08-14T01:32:22;13.82;;;6.78;;
21095;SDS011;10706;49.036;12.112;2022-08-14T01:34:49;12.82;;;6.78;;
21095;SDS011;10706;49.036;12.112;2022-08-14T01:37:20;13.48;;;6.57;;
21095;SDS011;10706;49.036;12.112;2022-08-14T01:39:48;21.35;;;6.88;;
21095;SDS011;10706;49.036;12.112;2022-08-14T01:42:15;12.82;;;6.72;;
21095;SDS011;10706;49.036;12.112;2022-08-14T01:44:43;13.77;;;6.95;;
21095;SDS011;10706;49.036;12.112;2022-08-14T01:47:15;13.25;;;6.53;;
21095;SDS011;10706;49.036;12.112;2022-08-14T01:49:42;13.57;;;6.72;;
21095;SDS011;10706;49.036;12.112;2022-08-14T01:52:09;13.07;;;6.78;;
21095;SDS011;10706;49.036;12.112;2022-08-14T01:54:37;14.10;;;7.10;;
21095;SDS011;10706;49.036;12.112;2022-08-14T01:57:03;15.23;;;6.53;;
21095;SDS011;10706;49.036;12.112;2022-08-14T01:59:35;13.70;;;6.93;;
21095;SDS011;10706;49.036;12.112;2022-08-14T02:02:03;14.30;;;7.43;;
21095;SDS011;10706;49.036;12.112;2022-08-14T02:04:37;14.52;;;7.18;;
21095;SDS011;10706;49.036;12.112;2022-08-14T02:07:04;16.27;;;7.90;;
21095;SDS011;10706;49.036;12.112;2022-08-14T02:09:31;14.10;;;7.10;;
21095;SDS011;10706;49.036;12.112;2022-08-14T02:12:00;14.55;;;7.30;;
21095;SDS011;10706;49.036;12.112;2022-08-14T02:14:28;13.60;;;7.38;;
21095;SDS011;10706;49.036;12.112;2022-08-14T02:16:56;15.95;;;7.53;;
21095;SDS011;10706;49.036;12.112;2022-08-14T02:19:23;14.77;;;7.38;;
21095;SDS011;10706;49.036;12.112;2022-08-14T02:21:53;14.35;;;7.35;;
21095;SDS011;10706;49.036;12.112;2022-08-14T02:24:22;16.67;;;7.60;;
21095;SDS011;10706;49.036;12.112;2022-08-14T02:26:53;16.25;;;7.18;;
21095;SDS011;10706;49.036;12.112;2022-08-14T02:29:23;14.35;;;7.20;;
21095;SDS011;10706;49.036;12.112;2022-08-14T02:31:52;15.95;;;7.63;;
21095;SDS011;10706;49.036;12.112;2022-08-14T02:34:22;15.15;;;7.85;;
21095;SDS011;10706;49.036;12.112;2022-08-14T02:36:57;17.50;;;8.27;;
21095;SDS011;10706;49.036;12.112;2022-08-14T02:39:27;16.48;;;8.23;;
21095;SDS011;10706;49.036;12.112;2022-08-14T02:41:54;16.02;;;7.95;;
21095;SDS011;10706;49.036;12.112;2022-08-14T02:44:21;14.85;;;7.72;;
21095;SDS011;10706;49.036;12.112;2022-08-14T02:46:47;15.30;;;8.45;;
21095;SDS011;10706;49.036;12.112;2022-08-14T02:49:16;15.50;;;8.63;;
21095;SDS011;10706;49.036;12.112;2022-08-14T02:51:46;18.30;;;8.25;;
21095;SDS011;10706;49.036;12.112;2022-08-14T02:54:13;15.07;;;7.80;;
21095;SDS011;10706;49.036;12.112;2022-08-14T02:56:38;25.40;;;8.57;;
21095;SDS011;10706;49.036;12.112;2022-08-14T02:59:05;14.93;;;7.78;;
21095;SDS011;10706;49.036;12.112;2022-08-14T03:01:34;14.02;;;7.68;;
21095;SDS011;10706;49.036;12.112;2022-08-14T03:04:02;14.85;;;7.88;;
21095;SDS011;10706;49.036;12.112;2022-08-14T03:06:30;15.27;;;7.72;;
21095;SDS011;10706;49.036;12.112;2022-08-14T03:08:56;15.70;;;7.63;;
21095;SDS011;10706;49.036;12.112;2022-08-14T03:11:23;15.40;;;8.05;;
21095;SDS011;10706;49.036;12.112;2022-08-14T03:13:50;16.30;;;8.48;;
21095;SDS011;10706;49.036;12.112;2022-08-14T03:16:18;19.30;;;9.00;;
21095;SDS011;10706;49.036;12.112;2022-08-14T03:18:50;15.55;;;8.68;;
21095;SDS011;10706;49.036;12.112;2022-08-14T03:21:19;17.17;;;8.55;;
21095;SDS011;10706;49.036;12.112;2022-08-14T03:23:49;16.90;;;8.98;;
21095;SDS011;10706;49.036;12.112;2022-08-14T03:26:24;19.08;;;8.90;;
21095;SDS011;10706;49.036;12.112;2022-08-14T03:28:51;15.60;;;8.15;;
21095;SDS011;10706;49.036;12.112;2022-08-14T03:31:17;23.30;;;9.07;;
21095;SDS011;10706;49.036;12.112;2022-08-14T03:33:48;19.70;;;8.98;;
21095;SDS011;10706;49.036;12.112;2022-08-14T03:36:16;16.98;;;9.20;;
21095;SDS011;10706;49.036;12.112;2022-08-14T03:38:45;16.52;;;9.35;;
21095;SDS011;10706;49.036;12.112;2022-08-14T03:41:15;16.80;;;9.07;;
21095;SDS011;10706;49.036;12.112;2022-08-14T03:43:52;18.55;;;8.77;;
21095;SDS011;10706;49.036;12.112;2022-08-14T03:46:22;18.17;;;10.00;;
21095;SDS011;10706;49.036;12.112;2022-08-14T03:48:52;18.98;;;9.85;;
21095;SDS011;10706;49.036;12.112;2022-08-14T03:51:19;17.20;;;8.82;;
21095;SDS011;10706;49.036;12.112;2022-08-14T03:53:46;17.88;;;8.75;;
21095;SDS011;10706;49.036;12.112;2022-08-14T03:56:15;16.60;;;8.90;;
21095;SDS011;10706;49.036;12.112;2022-08-14T03:58:42;19.15;;;9.48;;
21095;SDS011;10706;49.036;12.112;2022-08-14T04:01:12;18.05;;;8.85;;
21095;SDS011;10706;49.036;12.112;2022-08-14T04:03:40;19.33;;;8.73;;
21095;SDS011;10706;49.036;12.112;2022-08-14T04:06:06;17.23;;;8.75;;
21095;SDS011;10706;49.036;12.112;2022-08-14T04:08:34;16.92;;;9.13;;
21095;SDS011;10706;49.036;12.112;2022-08-14T04:11:01;17.70;;;9.65;;
21095;SDS011;10706;49.036;12.112;2022-08-14T04:13:27;16.58;;;8.45;;
21095;SDS011;10706;49.036;12.112;2022-08-14T04:15:54;15.45;;;8.68;;
21095;SDS011;10706;49.036;12.112;2022-08-14T04:18:21;16.58;;;9.20;;
21095;SDS011;10706;49.036;12.112;2022-08-14T04:20:47;18.27;;;8.50;;
21095;SDS011;10706;49.036;12.112;2022-08-14T04:23:13;18.13;;;10.07;;
21095;SDS011;10706;49.036;12.112;2022-08-14T04:25:40;16.20;;;8.73;;
21095;SDS011;10706;49.036;12.112;2022-08-14T04:28:06;21.00;;;9.00;;
21095;SDS011;10706;49.036;12.112;2022-08-14T04:30:35;18.08;;;9.23;;
21095;SDS011;10706;49.036;12.112;2022-08-14T04:33:02;19.48;;;8.90;;
21095;SDS011;10706;49.036;12.112;2022-08-14T04:35:31;17.50;;;8.90;;
21095;SDS011;10706;49.036;12.112;2022-08-14T04:37:58;16.98;;;8.45;;
21095;SDS011;10706;49.036;12.112;2022-08-14T04:40:43;15.35;;;8.32;;
21095;SDS011;10706;49.036;12.112;2022-08-14T04:43:27;21.02;;;9.18;;
21095;SDS011;10706;49.036;12.112;2022-08-14T04:46:14;16.85;;;8.50;;
21095;SDS011;10706;49.036;12.112;2022-08-14T04:48:43;16.40;;;8.98;;
21095;SDS011;10706;49.036;12.112;2022-08-14T04:51:13;17.00;;;8.32;;
21095;SDS011;10706;49.036;12.112;2022-08-14T04:53:43;17.38;;;8.20;;
21095;SDS011;10706;49.036;12.112;2022-08-14T04:56:11;15.50;;;8.35;;
21095;SDS011;10706;49.036;12.112;2022-08-14T04:58:46;17.02;;;8.50;;
21095;SDS011;10706;49.036;12.112;2022-08-14T05:01:19;15.10;;;7.97;;
21095;SDS011;10706;49.036;12.112;2022-08-14T05:03:45;16.48;;;8.70;;
21095;SDS011;10706;49.036;12.112;2022-08-14T05:06:11;16.15;;;8.65;;
21095;SDS011;10706;49.036;12.112;2022-08-14T05:08:38;17.42;;;8.68;;
21095;SDS011;10706;49.036;12.112;2022-08-14T05:11:04;18.35;;;8.57;;
21095;SDS011;10706;49.036;12.112;2022-08-14T05:13:32;16.02;;;8.80;;
21095;SDS011;10706;49.036;12.112;2022-08-14T05:16:01;15.00;;;8.23;;
21095;SDS011;10706;49.036;12.112;2022-08-14T05:18:30;16.48;;;8.77;;
21095;SDS011;10706;49.036;12.112;2022-08-14T05:21:03;19.98;;;8.23;;
21095;SDS011;10706;49.036;12.112;2022-08-14T05:23:39;15.00;;;7.85;;
21095;SDS011;10706;49.036;12.112;2022-08-14T05:26:05;16.70;;;7.40;;
21095;SDS011;10706;49.036;12.112;2022-08-14T05:28:38;16.83;;;7.95;;
21095;SDS011;10706;49.036;12.112;2022-08-14T05:31:08;16.20;;;8.30;;
21095;SDS011;10706;49.036;12.112;2022-08-14T05:33:41;14.60;;;7.15;;
21095;SDS011;10706;49.036;12.112;2022-08-14T05:36:09;16.63;;;8.43;;
21095;SDS011;10706;49.036;12.112;2022-08-14T05:38:37;16.15;;;7.75;;
21095;SDS011;10706;49.036;12.112;2022-08-14T05:41:13;14.68;;;8.10;;
21095;SDS011;10706;49.036;12.112;2022-08-14T05:43:42;15.68;;;8.13;;
21095;SDS011;10706;49.036;12.112;2022-08-14T05:46:12;14.15;;;7.00;;
21095;SDS011;10706;49.036;12.112;2022-08-14T05:48:45;14.70;;;6.97;;
21095;SDS011;10706;49.036;12.112;2022-08-14T05:51:19;13.55;;;6.32;;
21095;SDS011;10706;49.036;12.112;2022-08-14T05:53:46;13.18;;;6.75;;
21095;SDS011;10706;49.036;12.112;2022-08-14T05:56:12;12.30;;;6.18;;
21095;SDS011;10706;49.036;12.112;2022-08-14T05:58:38;15.40;;;7.13;;
21095;SDS011;10706;49.036;12.112;2022-08-14T06:01:04;12.48;;;6.38;;
21095;SDS011;10706;49.036;12.112;2022-08-14T06:03:30;13.93;;;6.65;;
21095;SDS011;10706;49.036;12.112;2022-08-14T06:05:56;14.43;;;6.13;;
21095;SDS011;10706;49.036;12.112;2022-08-14T06:08:23;15.05;;;7.22;;
21095;SDS011;10706;49.036;12.112;2022-08-14T06:10:52;13.13;;;6.60;;
21095;SDS011;10706;49.036;12.112;2022-08-14T06:13:31;15.77;;;6.78;;
21095;SDS011;10706;49.036;12.112;2022-08-14T06:15:59;13.45;;;6.38;;
21095;SDS011;10706;49.036;12.112;2022-08-14T06:18:25;13.63;;;6.18;;
21095;SDS011;10706;49.036;12.112;2022-08-14T06:20:51;14.98;;;6.97;;
21095;SDS011;10706;49.036;12.112;2022-08-14T06:23:18;14.95;;;7.05;;
21095;SDS011;10706;49.036;12.112;2022-08-14T06:25:44;17.02;;;7.13;;
21095;SDS011;10706;49.036;12.112;2022-08-14T06:28:21;14.98;;;6.80;;
21095;SDS011;10706;49.036;12.112;2022-08-14T06:30:50;13.88;;;6.43;;
21095;SDS011;10706;49.036;12.112;2022-08-14T06:33:16;15.63;;;7.93;;
21095;SDS011;10706;49.036;12.112;2022-08-14T06:35:44;13.80;;;6.97;;
21095;SDS011;10706;49.036;12.112;2022-08-14T06:38:15;15.13;;;7.00;;
21095;SDS011;10706;49.036;12.112;2022-08-14T06:40:45;18.77;;;7.28;;
21095;SDS011;10706;49.036;12.112;2022-08-14T06:43:12;14.57;;;6.40;;
21095;SDS011;10706;49.036;12.112;2022-08-14T06:45:40;14.07;;;6.68;;
21095;SDS011;10706;49.036;12.112;2022-08-14T06:48:15;14.43;;;6.47;;
21095;SDS011;10706;49.036;12.112;2022-08-14T06:50:47;13.32;;;6.70;;
21095;SDS011;10706;49.036;12.112;2022-08-14T06:53:14;13.45;;;6.47;;
21095;SDS011;10706;49.036;12.112;2022-08-14T06:55:40;13.77;;;7.18;;
21095;SDS011;10706;49.036;12.112;2022-08-14T06:58:09;13.85;;;6.70;;
21095;SDS011;10706;49.036;12.112;2022-08-14T07:00:40;14.48;;;6.75;;
21095;SDS011;10706;49.036;12.112;2022-08-14T07:03:29;15.52;;;6.72;;
21095;SDS011;10706;49.036;12.112;2022-08-14T07:06:15;11.63;;;6.10;;
21095;SDS011;10706;49.036;12.112;2022-08-14T07:08:41;13.57;;;6.97;;
21095;SDS011;10706;49.036;12.112;2022-08-14T07:11:08;12.00;;;5.95;;
21095;SDS011;10706;49.036;12.112;2022-08-14T07:13:35;15.20;;;6.55;;
21095;SDS011;10706;49.036;12.112;2022-08-14T07:16:02;16.17;;;6.93;;
21095;SDS011;10706;49.036;12.112;2022-08-14T07:18:30;15.23;;;7.05;;
21095;SDS011;10706;49.036;12.112;2022-08-14T07:20:58;12.63;;;6.45;;
21095;SDS011;10706;49.036;12.112;2022-08-14T07:23:26;14.73;;;6.43;;
21095;SDS011;10706;49.036;12.112;2022-08-14T07:25:56;13.35;;;6.43;;
21095;SDS011;10706;49.036;12.112;2022-08-14T07:28:24;15.15;;;5.90;;
21095;SDS011;10706;49.036;12.112;2022-08-14T07:30:54;14.48;;;6.10;;
21095;SDS011;10706;49.036;12.112;2022-08-14T07:33:25;12.80;;;5.78;;
21095;SDS011;10706;49.036;12.112;2022-08-14T07:35:53;12.13;;;5.72;;
21095;SDS011;10706;49.036;12.112;2022-08-14T07:38:21;12.93;;;5.78;;
21095;SDS011;10706;49.036;12.112;2022-08-14T07:40:48;15.27;;;6.13;;
21095;SDS011;10706;49.036;12.112;2022-08-14T07:43:15;13.30;;;6.20;;
21095;SDS011;10706;49.036;12.112;2022-08-14T07:45:42;13.70;;;6.20;;
21095;SDS011;10706;49.036;12.112;2022-08-14T07:48:08;12.30;;;6.13;;
21095;SDS011;10706;49.036;12.112;2022-08-14T07:50:34;13.15;;;6.25;;
21095;SDS011;10706;49.036;12.112;2022-08-14T07:53:03;14.23;;;5.88;;
21095;SDS011;10706;49.036;12.112;2022-08-14T07:55:31;12.55;;;5.47;;
21095;SDS011;10706;49.036;12.112;2022-08-14T07:57:57;12.82;;;5.82;;
21095;SDS011;10706;49.036;12.112;2022-08-14T08:00:23;13.82;;;5.07;;
21095;SDS011;10706;49.036;12.112;2022-08-14T08:02:51;11.27;;;5.40;;
21095;SDS011;10706;49.036;12.112;2022-08-14T08:05:19;10.88;;;5.30;;
21095;SDS011;10706;49.036;12.112;2022-08-14T08:07:49;11.80;;;5.20;;
21095;SDS011;10706;49.036;12.112;2022-08-14T08:10:17;12.80;;;5.90;;
21095;SDS011;10706;49.036;12.112;2022-08-14T08:12:56;11.43;;;5.55;;
21095;SDS011;10706;49.036;12.112;2022-08-14T08:15:24;16.15;;;5.88;;
21095;SDS011;10706;49.036;12.112;2022-08-14T08:17:52;11.65;;;5.35;;
21095;SDS011;10706;49.036;12.112;2022-08-14T08:20:22;10.95;;;5.28;;
21095;SDS011;10706;49.036;12.112;2022-08-14T08:22:50;11.18;;;5.13;;
21095;SDS011;10706;49.036;12.112;2022-08-14T08:25:22;13.02;;;5.38;;
21095;SDS011;10706;49.036;12.112;2022-08-14T08:27:57;11.15;;;5.30;;
21095;SDS011;10706;49.036;12.112;2022-08-14T08:30:33;12.57;;;5.20;;
21095;SDS011;10706;49.036;12.112;2022-08-14T08:33:03;12.30;;;5.70;;
21095;SDS011;10706;49.036;12.112;2022-08-14T08:35:32;12.40;;;6.13;;
21095;SDS011;10706;49.036;12.112;2022-08-14T08:38:01;11.27;;;5.40;;
21095;SDS011;10706;49.036;12.112;2022-08-14T08:40:34;9.77;;;5.28;;
21095;SDS011;10706;49.036;12.112;2022-08-14T08:43:03;9.68;;;4.80;;
21095;SDS011;10706;49.036;12.112;2022-08-14T08:45:30;9.80;;;5.00;;
21095;SDS011;10706;49.036;12.112;2022-08-14T08:47:59;10.45;;;4.90;;
21095;SDS011;10706;49.036;12.112;2022-08-14T08:50:27;10.95;;;4.82;;
21095;SDS011;10706;49.036;12.112;2022-08-14T08:53:01;12.85;;;5.05;;
21095;SDS011;10706;49.036;12.112;2022-08-14T08:55:33;10.98;;;4.35;;
21095;SDS011;10706;49.036;12.112;2022-08-14T09:00:37;8.43;;;4.53;;
21095;SDS011;10706;49.036;12.112;2022-08-14T09:05:32;9.45;;;4.68;;
21095;SDS011;10706;49.036;12.112;2022-08-14T09:08:09;9.65;;;4.47;;
21095;SDS011;10706;49.036;12.112;2022-08-14T09:10:37;10.95;;;4.50;;
21095;SDS011;10706;49.036;12.112;2022-08-14T09:13:03;8.80;;;4.50;;
21095;SDS011;10706;49.036;12.112;2022-08-14T09:15:29;9.98;;;4.32;;
21095;SDS011;10706;49.036;12.112;2022-08-14T09:17:55;8.98;;;4.40;;
21095;SDS011;10706;49.036;12.112;2022-08-14T09:20:22;12.63;;;5.00;;
21095;SDS011;10706;49.036;12.112;2022-08-14T09:22:48;9.60;;;4.43;;
21095;SDS011;10706;49.036;12.112;2022-08-14T09:25:15;10.82;;;4.57;;
21095;SDS011;10706;49.036;12.112;2022-08-14T09:27:42;8.55;;;4.30;;
21095;SDS011;10706;49.036;12.112;2022-08-14T09:30:09;10.15;;;4.80;;
21095;SDS011;10706;49.036;12.112;2022-08-14T09:32:38;13.43;;;4.57;;
21095;SDS011;10706;49.036;12.112;2022-08-14T09:40:58;9.35;;;4.40;;
21095;SDS011;10706;49.036;12.112;2022-08-14T09:46:39;12.23;;;4.45;;
21095;SDS011;10706;49.036;12.112;2022-08-14T09:49:30;9.48;;;4.32;;
21095;SDS011;10706;49.036;12.112;2022-08-14T09:52:04;9.30;;;4.15;;
21095;SDS011;10706;49.036;12.112;2022-08-14T09:54:42;10.32;;;4.05;;
21095;SDS011;10706;49.036;12.112;2022-08-14T09:57:25;10.73;;;4.50;;
21095;SDS011;10706;49.036;12.112;2022-08-14T09:59:54;10.23;;;4.55;;
21095;SDS011;10706;49.036;12.112;2022-08-14T10:02:27;9.63;;;4.22;;
21095;SDS011;10706;49.036;12.112;2022-08-14T10:07:34;8.57;;;3.88;;
21095;SDS011;10706;49.036;12.112;2022-08-14T10:10:25;10.35;;;4.18;;
21095;SDS011;10706;49.036;12.112;2022-08-14T10:13:24;8.30;;;4.10;;
21095;SDS011;10706;49.036;12.112;2022-08-14T10:15:50;9.85;;;4.07;;
21095;SDS011;10706;49.036;12.112;2022-08-14T10:18:25;9.38;;;4.25;;
21095;SDS011;10706;49.036;12.112;2022-08-14T10:20:56;10.55;;;4.47;;
21095;SDS011;10706;49.036;12.112;2022-08-14T10:23:26;10.35;;;4.45;;
21095;SDS011;10706;49.036;12.112;2022-08-14T10:26:05;9.88;;;4.13;;
21095;SDS011;10706;49.036;12.112;2022-08-14T10:28:39;9.10;;;4.07;;
21095;SDS011;10706;49.036;12.112;2022-08-14T10:31:21;9.60;;;4.30;;
21095;SDS011;10706;49.036;12.112;2022-08-14T10:34:00;9.20;;;4.43;;
21095;SDS011;10706;49.036;12.112;2022-08-14T10:36:43;9.95;;;4.10;;
21095;SDS011;10706;49.036;12.112;2022-08-14T10:39:19;9.93;;;4.00;;
21095;SDS011;10706;49.036;12.112;2022-08-14T10:41:51;9.73;;;4.18;;
21095;SDS011;10706;49.036;12.112;2022-08-14T10:47:02;7.68;;;3.38;;
21095;SDS011;10706;49.036;12.112;2022-08-14T10:49:33;7.78;;;3.90;;
21095;SDS011;10706;49.036;12.112;2022-08-14T10:52:08;9.10;;;3.92;;
21095;SDS011;10706;49.036;12.112;2022-08-14T10:54:36;10.93;;;4.00;;
21095;SDS011;10706;49.036;12.112;2022-08-14T10:59:51;10.07;;;4.45;;
21095;SDS011;10706;49.036;12.112;2022-08-14T11:04:57;9.10;;;3.88;;
21095;SDS011;10706;49.036;12.112;2022-08-14T11:07:38;8.07;;;4.00;;
21095;SDS011;10706;49.036;12.112;2022-08-14T11:12:41;7.70;;;4.00;;
21095;SDS011;10706;49.036;12.112;2022-08-14T11:15:12;7.97;;;3.70;;
21095;SDS011;10706;49.036;12.112;2022-08-14T11:17:46;9.93;;;4.00;;
21095;SDS011;10706;49.036;12.112;2022-08-14T11:20:18;8.77;;;3.88;;
21095;SDS011;10706;49.036;12.112;2022-08-14T11:22:48;9.38;;;4.00;;
21095;SDS011;10706;49.036;12.112;2022-08-14T11:36:34;9.32;;;4.05;;
21095;SDS011;10706;49.036;12.112;2022-08-14T11:39:00;9.27;;;3.80;;
21095;SDS011;10706;49.036;12.112;2022-08-14T11:41:26;10.50;;;4.57;;
21095;SDS011;10706;49.036;12.112;2022-08-14T11:43:52;9.63;;;4.43;;
21095;SDS011;10706;49.036;12.112;2022-08-14T11:46:19;9.10;;;3.78;;
21095;SDS011;10706;49.036;12.112;2022-08-14T11:48:51;9.68;;;4.20;;
21095;SDS011;10706;49.036;12.112;2022-08-14T11:51:22;8.77;;;4.10;;
21095;SDS011;10706;49.036;12.112;2022-08-14T11:56:24;8.75;;;4.03;;
21095;SDS011;10706;49.036;12.112;2022-08-14T11:59:07;10.13;;;4.57;;
21095;SDS011;10706;49.036;12.112;2022-08-14T12:01:41;9.60;;;4.03;;
21095;SDS011;10706;49.036;12.112;2022-08-14T12:04:13;9.60;;;4.22;;
21095;SDS011;10706;49.036;12.112;2022-08-14T12:07:16;11.27;;;4.20;;
21095;SDS011;10706;49.036;12.112;2022-08-14T12:09:36;9.40;;;4.10;;
21095;SDS011;10706;49.036;12.112;2022-08-14T12:12:16;11.30;;;4.10;;
21095;SDS011;10706;49.036;12.112;2022-08-14T12:15:02;8.38;;;3.78;;
21095;SDS011;10706;49.036;12.112;2022-08-14T12:17:30;9.95;;;4.03;;
21095;SDS011;10706;49.036;12.112;2022-08-14T12:20:07;8.10;;;3.95;;
21095;SDS011;10706;49.036;12.112;2022-08-14T12:22:38;8.20;;;3.83;;
21095;SDS011;10706;49.036;12.112;2022-08-14T12:25:05;8.48;;;3.92;;
21095;SDS011;10706;49.036;12.112;2022-08-14T12:27:45;8.15;;;3.85;;
21095;SDS011;10706;49.036;12.112;2022-08-14T12:32:58;6.60;;;3.53;;
21095;SDS011;10706;49.036;12.112;2022-08-14T12:35:41;8.95;;;3.67;;
21095;SDS011;10706;49.036;12.112;2022-08-14T12:38:11;8.27;;;4.20;;
21095;SDS011;10706;49.036;12.112;2022-08-14T12:40:48;8.75;;;3.58;;
21095;SDS011;10706;49.036;12.112;2022-08-14T12:43:18;7.70;;;3.67;;
21095;SDS011;10706;49.036;12.112;2022-08-14T12:45:46;7.00;;;3.65;;
21095;SDS011;10706;49.036;12.112;2022-08-14T12:48:15;6.82;;;3.80;;
21095;SDS011;10706;49.036;12.112;2022-08-14T12:50:46;9.70;;;3.60;;
21095;SDS011;10706;49.036;12.112;2022-08-14T12:53:16;7.80;;;3.78;;
21095;SDS011;10706;49.036;12.112;2022-08-14T12:55:44;8.05;;;3.80;;
21095;SDS011;10706;49.036;12.112;2022-08-14T12:58:21;8.75;;;3.75;;
21095;SDS011;10706;49.036;12.112;2022-08-14T13:00:54;8.63;;;3.83;;
21095;SDS011;10706;49.036;12.112;2022-08-14T13:03:24;10.10;;;3.70;;
21095;SDS011;10706;49.036;12.112;2022-08-14T13:05:53;7.65;;;3.40;;
21095;SDS011;10706;49.036;12.112;2022-08-14T13:08:20;9.13;;;3.60;;
21095;SDS011;10706;49.036;12.112;2022-08-14T13:10:47;8.77;;;3.35;;
21095;SDS011;10706;49.036;12.112;2022-08-14T13:13:17;8.15;;;3.80;;
21095;SDS011;10706;49.036;12.112;2022-08-14T13:15:48;8.07;;;3.85;;
21095;SDS011;10706;49.036;12.112;2022-08-14T13:18:16;11.43;;;3.60;;
21095;SDS011;10706;49.036;12.112;2022-08-14T13:20:43;9.20;;;3.60;;
21095;SDS011;10706;49.036;12.112;2022-08-14T13:23:12;10.63;;;3.83;;
21095;SDS011;10706;49.036;12.112;2022-08-14T13:25:41;8.07;;;3.80;;
21095;SDS011;10706;49.036;12.112;2022-08-14T13:28:08;7.93;;;3.53;;
21095;SDS011;10706;49.036;12.112;2022-08-14T13:30:36;9.48;;;4.03;;
21095;SDS011;10706;49.036;12.112;2022-08-14T13:33:04;6.78;;;3.67;;
21095;SDS011;10706;49.036;12.112;2022-08-14T13:35:31;8.27;;;4.10;;
21095;SDS011;10706;49.036;12.112;2022-08-14T13:37:57;8.50;;;4.65;;
21095;SDS011;10706;49.036;12.112;2022-08-14T13:40:23;9.02;;;4.30;;
21095;SDS011;10706;49.036;12.112;2022-08-14T13:42:49;9.93;;;4.20;;
21095;SDS011;10706;49.036;12.112;2022-08-14T13:45:16;11.63;;;4.38;;
21095;SDS011;10706;49.036;12.112;2022-08-14T13:47:46;9.85;;;4.28;;
21095;SDS011;10706;49.036;12.112;2022-08-14T13:50:12;8.38;;;4.28;;
21095;SDS011;10706;49.036;12.112;2022-08-14T13:52:42;8.68;;;4.18;;
21095;SDS011;10706;49.036;12.112;2022-08-14T13:55:15;8.70;;;4.32;;
21095;SDS011;10706;49.036;12.112;2022-08-14T13:57:43;9.38;;;4.00;;
21095;SDS011;10706;49.036;12.112;2022-08-14T14:00:13;8.50;;;4.10;;
21095;SDS011;10706;49.036;12.112;2022-08-14T14:02:41;10.25;;;4.50;;
21095;SDS011;10706;49.036;12.112;2022-08-14T14:05:12;8.55;;;4.32;;
21095;SDS011;10706;49.036;12.112;2022-08-14T14:07:43;8.13;;;3.90;;
21095;SDS011;10706;49.036;12.112;2022-08-14T14:10:13;9.27;;;4.25;;
21095;SDS011;10706;49.036;12.112;2022-08-14T14:12:41;9.13;;;4.20;;
21095;SDS011;10706;49.036;12.112;2022-08-14T14:15:09;9.30;;;4.18;;
21095;SDS011;10706;49.036;12.112;2022-08-14T14:17:41;9.27;;;4.22;;
21095;SDS011;10706;49.036;12.112;2022-08-14T14:20:09;11.65;;;4.30;;
21095;SDS011;10706;49.036;12.112;2022-08-14T14:22:41;9.38;;;4.25;;
21095;SDS011;10706;49.036;12.112;2022-08-14T14:25:10;11.73;;;4.32;;
21095;SDS011;10706;49.036;12.112;2022-08-14T14:27:39;8.40;;;3.78;;
21095;SDS011;10706;49.036;12.112;2022-08-14T14:30:06;8.85;;;3.70;;
21095;SDS011;10706;49.036;12.112;2022-08-14T14:32:34;10.55;;;4.25;;
21095;SDS011;10706;49.036;12.112;2022-08-14T14:35:05;7.80;;;3.72;;
21095;SDS011;10706;49.036;12.112;2022-08-14T14:37:37;7.97;;;3.75;;
21095;SDS011;10706;49.036;12.112;2022-08-14T14:40:05;9.57;;;4.10;;
21095;SDS011;10706;49.036;12.112;2022-08-14T14:42:32;7.00;;;3.60;;
21095;SDS011;10706;49.036;12.112;2022-08-14T14:45:32;8.23;;;3.83;;
21095;SDS011;10706;49.036;12.112;2022-08-14T14:47:52;10.25;;;4.00;;
21095;SDS011;10706;49.036;12.112;2022-08-14T14:50:20;7.22;;;3.63;;
21095;SDS011;10706;49.036;12.112;2022-08-14T14:52:47;9.48;;;4.10;;
21095;SDS011;10706;49.036;12.112;2022-08-14T14:55:15;9.90;;;3.85;;
21095;SDS011;10706;49.036;12.112;2022-08-14T14:57:42;8.55;;;3.90;;
21095;SDS011;10706;49.036;12.112;2022-08-14T15:00:10;8.43;;;3.90;;
21095;SDS011;10706;49.036;12.112;2022-08-14T15:02:42;11.00;;;4.32;;
21095;SDS011;10706;49.036;12.112;2022-08-14T15:05:12;9.43;;;4.03;;
21095;SDS011;10706;49.036;12.112;2022-08-14T15:07:41;9.90;;;4.10;;
21095;SDS011;10706;49.036;12.112;2022-08-14T15:10:09;8.18;;;4.00;;
21095;SDS011;10706;49.036;12.112;2022-08-14T15:12:37;10.32;;;4.40;;
21095;SDS011;10706;49.036;12.112;2022-08-14T15:15:03;10.23;;;3.80;;
21095;SDS011;10706;49.036;12.112;2022-08-14T15:17:30;9.48;;;3.80;;
21095;SDS011;10706;49.036;12.112;2022-08-14T15:19:59;8.90;;;4.00;;
21095;SDS011;10706;49.036;12.112;2022-08-14T15:22:28;10.57;;;4.07;;
21095;SDS011;10706;49.036;12.112;2022-08-14T15:24:54;9.65;;;4.03;;